Time;durP1;ratioP1;P1;durP2;ratioP2;P2;SDS_P1;SDS_P2;PMS_P1;PMS_P2;Temp;Humidity;BMP_temperature;BMP_pressure;BME280_temperature;BME280_humidity;BME280_pressure;Samples;Min_cycle;Max_cycle;Signal;HPM_P1;HPM_P2
2023/06/08 00:00:09;;;;;;;2.58;1.30;;;;;;;20.08;69.81;101206.81;4940569;28;21606;-63
2023/06/08 00:02:37;;;;;;;5.22;1.08;;;;;;;19.97;69.96;101203.44;4957477;28;20046;-63
2023/06/08 00:05:04;;;;;;;2.08;1.15;;;;;;;19.92;70.25;101201.88;4955414;28;20615;-63
2023/06/08 00:07:30;;;;;;;1.63;1.25;;;;;;;19.89;69.67;101204.66;4945755;28;20058;-63
2023/06/08 00:09:58;;;;;;;3.00;1.40;;;;;;;19.84;69.93;101199.66;4953475;28;20502;-64
2023/06/08 00:12:24;;;;;;;2.33;1.20;;;;;;;19.65;70.30;101206.41;4949461;28;20662;-63
2023/06/08 00:14:50;;;;;;;3.30;1.20;;;;;;;19.69;70.60;101205.22;4955814;28;20137;-62
2023/06/08 00:17:15;;;;;;;2.45;1.40;;;;;;;19.71;70.32;101197.41;4958702;28;20085;-62
2023/06/08 00:19:42;;;;;;;1.05;0.88;;;;;;;19.60;70.58;101204.13;4962694;28;20034;-63
2023/06/08 00:22:12;;;;;;;1.17;1.08;;;;;;;19.56;70.62;101200.66;4955596;28;20051;-64
2023/06/08 00:24:38;;;;;;;5.35;2.22;;;;;;;19.57;70.62;101186.56;4960905;28;20039;-63
2023/06/08 00:27:05;;;;;;;1.15;1.00;;;;;;;19.46;70.93;101191.34;4970164;28;20463;-63
2023/06/08 00:29:34;;;;;;;2.17;1.20;;;;;;;19.41;70.69;101189.06;5004238;28;20026;-63
2023/06/08 00:32:02;;;;;;;2.90;2.00;;;;;;;19.38;70.97;101189.84;5001613;28;20509;-63
2023/06/08 00:34:27;;;;;;;4.10;1.55;;;;;;;19.39;71.06;101185.16;4991057;28;20125;-63
2023/06/08 00:36:55;;;;;;;4.00;1.70;;;;;;;19.33;70.66;101189.50;5004541;28;20057;-62
2023/06/08 00:39:21;;;;;;;2.40;1.13;;;;;;;19.12;71.56;101187.66;5003373;28;20033;-64
2023/06/08 00:41:46;;;;;;;1.75;1.10;;;;;;;19.01;71.90;101184.19;5006848;28;20037;-63
2023/06/08 00:44:12;;;;;;;1.23;0.95;;;;;;;18.96;72.64;101195.53;4989291;28;20488;-62
2023/06/08 00:46:38;;;;;;;3.17;1.73;;;;;;;18.89;72.66;101184.66;4999899;28;20034;-64
2023/06/08 00:51:47;;;;;;;1.20;0.90;;;;;;;18.80;72.96;101189.75;5009825;28;20188;-58
2023/06/08 00:54:15;;;;;;;1.70;1.00;;;;;;;18.77;73.63;101188.63;5007421;28;20041;-58
2023/06/08 00:56:42;;;;;;;2.42;1.10;;;;;;;18.83;73.25;101188.97;5021950;28;20028;-60
2023/06/08 00:59:10;;;;;;;3.40;2.30;;;;;;;18.78;73.03;101192.88;5000352;28;20038;-58
2023/06/08 01:01:38;;;;;;;2.95;1.08;;;;;;;18.78;73.34;101189.38;4994945;28;20088;-58
2023/06/08 01:04:25;;;;;;;2.97;1.38;;;;;;;18.74;73.27;101188.59;5004461;28;20400;-61
2023/06/08 01:07:04;;;;;;;2.20;0.98;;;;;;;18.79;72.98;101190.94;4969026;28;20034;-61
2023/06/08 01:09:48;;;;;;;2.28;1.27;;;;;;;18.73;72.98;101181.59;4988939;28;20045;-57
2023/06/08 01:12:20;;;;;;;1.35;1.25;;;;;;;18.75;72.24;101184.72;4988325;28;20057;-58
2023/06/08 01:14:55;;;;;;;2.20;1.25;;;;;;;18.75;72.39;101180.06;4972298;28;20503;-61
2023/06/08 01:17:27;;;;;;;5.93;1.50;;;;;;;18.77;72.07;101187.84;4982593;28;20587;-58
2023/06/08 01:20:15;;;;;;;2.00;1.13;;;;;;;18.66;72.19;101189.84;4989655;28;20599;-60
2023/06/08 01:23:09;;;;;;;1.55;1.10;;;;;;;18.47;73.36;101185.59;4986206;28;20105;-60
2023/06/08 01:25:39;;;;;;;4.97;1.80;;;;;;;18.47;73.36;101184.81;4980419;28;20077;-59
2023/06/08 01:28:13;;;;;;;2.22;1.15;;;;;;;18.43;72.95;101184.06;4980758;28;20066;-60
2023/06/08 01:30:44;;;;;;;4.88;1.33;;;;;;;18.39;73.47;101180.56;4980680;28;20173;-60
2023/06/08 01:33:11;;;;;;;;;;;;;;;18.35;73.04;101177.81;4979046;28;20045;-60
2023/06/08 01:35:38;;;;;;;2.05;0.82;;;;;;;18.25;73.72;101181.38;4988316;28;19922;-60
2023/06/08 01:38:13;;;;;;;6.13;1.50;;;;;;;18.29;73.45;101167.72;4983762;28;20527;-61
2023/06/08 01:40:43;;;;;;;1.65;1.23;;;;;;;18.17;73.79;101171.66;4984992;28;20132;-60
2023/06/08 01:43:11;;;;;;;2.60;1.23;;;;;;;18.16;73.92;101172.00;4990361;28;20049;-60
2023/06/08 01:45:44;;;;;;;1.90;1.10;;;;;;;18.14;73.78;101174.38;5007556;28;20503;-60
2023/06/08 01:48:10;;;;;;;2.05;1.42;;;;;;;18.14;73.93;101172.41;5005957;28;20523;-59
2023/06/08 01:50:37;;;;;;;2.45;1.27;;;;;;;18.10;73.75;101170.88;5006509;28;20029;-60
2023/06/08 01:53:05;;;;;;;2.92;1.63;;;;;;;18.18;73.88;101178.63;4998857;28;20053;-60
2023/06/08 01:55:30;;;;;;;1.60;0.98;;;;;;;18.15;73.49;101175.94;4994727;28;20137;-61
2023/06/08 01:57:56;;;;;;;2.00;1.15;;;;;;;18.02;73.55;101170.88;4999154;28;20117;-57
2023/06/08 02:00:22;;;;;;;3.58;1.65;;;;;;;17.98;73.73;101172.81;4998288;28;20030;-62
2023/06/08 02:02:48;;;;;;;1.48;1.00;;;;;;;17.89;73.60;101177.13;5007382;28;20488;-60
2023/06/08 02:05:15;;;;;;;3.40;1.40;;;;;;;17.83;73.81;101184.91;5002487;28;20109;-61
2023/06/08 02:07:42;;;;;;;4.47;0.88;;;;;;;17.85;74.64;101188.03;4997757;28;20034;-60
2023/06/08 02:10:10;;;;;;;6.18;1.90;;;;;;;17.82;73.90;101182.59;5013885;28;20066;-60
2023/06/08 02:12:56;;;;;;;3.90;1.70;;;;;;;17.67;74.79;101175.59;5002561;28;20026;-61
2023/06/08 02:15:22;;;;;;;2.80;1.17;;;;;;;17.67;74.94;101186.50;4929952;29;20043;-60
2023/06/08 02:17:47;;;;;;;1.40;1.02;;;;;;;17.69;74.55;101181.44;4923185;29;20058;-58
2023/06/08 02:20:13;;;;;;;3.55;1.30;;;;;;;17.63;74.13;101185.72;4923197;29;20048;-60
2023/06/08 02:22:39;;;;;;;3.17;1.58;;;;;;;17.55;74.87;101184.16;4914078;29;20123;-60
2023/06/08 02:25:07;;;;;;;2.45;1.10;;;;;;;17.52;75.04;101182.19;4924750;29;20044;-60
2023/06/08 02:27:36;;;;;;;1.92;1.30;;;;;;;17.53;74.96;101187.28;4918296;29;20051;-60
2023/06/08 02:30:04;;;;;;;4.90;1.60;;;;;;;17.54;74.74;101183.38;4922820;29;20402;-60
2023/06/08 02:32:32;;;;;;;4.20;1.50;;;;;;;17.37;75.62;101170.50;4921256;29;20146;-59
2023/06/08 02:35:03;;;;;;;3.67;1.77;;;;;;;17.36;75.07;101166.22;4925487;29;20451;-60
2023/06/08 02:37:34;;;;;;;3.40;1.25;;;;;;;17.24;75.75;101169.31;4905021;29;20059;-60
2023/06/08 02:40:01;;;;;;;5.75;2.08;;;;;;;17.07;76.51;101165.38;4906596;29;20043;-60
2023/06/08 02:42:32;;;;;;;3.30;1.33;;;;;;;17.16;76.70;101173.19;4924759;29;20062;-60
2023/06/08 02:44:59;;;;;;;2.20;1.25;;;;;;;17.09;76.61;101173.94;4921261;29;20680;-60
2023/06/08 02:47:27;;;;;;;2.20;1.10;;;;;;;17.27;75.69;101167.75;4916523;29;20192;-59
2023/06/08 02:49:52;;;;;;;3.83;1.55;;;;;;;17.08;76.40;101166.94;4913998;29;20036;-60
2023/06/08 02:52:18;;;;;;;1.73;1.40;;;;;;;17.10;75.96;101170.06;4943236;28;20038;-60
2023/06/08 02:54:43;;;;;;;5.15;1.98;;;;;;;17.22;75.81;101173.56;4995563;28;20683;-58
2023/06/08 02:57:09;;;;;;;3.03;1.67;;;;;;;17.14;76.53;101170.06;4992053;28;20034;-60
2023/06/08 02:59:43;;;;;;;3.80;1.58;;;;;;;17.21;76.00;101172.78;5003195;28;20499;-60
2023/06/08 03:02:09;;;;;;;4.55;1.25;;;;;;;17.13;76.25;101166.56;5017346;28;20100;-59
2023/06/08 03:04:37;;;;;;;2.88;1.80;;;;;;;17.14;76.24;101168.13;5018931;28;20116;-60
2023/06/08 03:07:04;;;;;;;2.42;1.50;;;;;;;17.16;76.05;101167.75;5001504;28;20057;-59
2023/06/08 03:09:34;;;;;;;2.15;1.20;;;;;;;17.17;75.84;101163.09;5023145;28;20038;-59
2023/06/08 03:12:03;;;;;;;3.10;1.73;;;;;;;17.15;76.26;101169.69;5004481;28;20034;-58
2023/06/08 03:14:30;;;;;;;3.22;1.75;;;;;;;17.17;76.28;101174.72;5021094;28;20041;-59
2023/06/08 03:17:01;;;;;;;2.22;1.63;;;;;;;17.08;76.28;101166.16;4997479;28;20051;-60
2023/06/08 03:19:32;;;;;;;3.22;1.95;;;;;;;17.07;77.17;101170.06;5001911;28;20694;-60
2023/06/08 03:22:00;;;;;;;5.88;1.90;;;;;;;17.09;77.03;101167.75;5006002;28;20077;-58
2023/06/08 03:24:28;;;;;;;4.00;1.67;;;;;;;17.04;77.36;101163.44;5000898;28;20115;-58
2023/06/08 03:27:00;;;;;;;3.78;1.73;;;;;;;17.08;76.74;101166.94;5006222;28;20030;-58
2023/06/08 03:29:30;;;;;;;3.10;1.58;;;;;;;17.11;76.93;101171.63;5003774;28;20034;-57
2023/06/08 03:31:58;;;;;;;4.10;1.42;;;;;;;17.11;76.37;101165.41;5010289;28;20528;-57
2023/06/08 03:34:27;;;;;;;2.60;1.23;;;;;;;17.03;76.57;101164.59;4999778;28;20178;-58
2023/06/08 03:36:59;;;;;;;4.13;1.23;;;;;;;16.82;76.75;101169.22;5000567;28;20033;-58
2023/06/08 03:39:25;;;;;;;2.53;1.33;;;;;;;16.74;77.43;101181.22;5014043;28;20121;-57
2023/06/08 03:41:51;;;;;;;3.03;1.38;;;;;;;16.73;77.54;101171.50;5000142;28;20121;-59
2023/06/08 03:44:19;;;;;;;3.70;1.85;;;;;;;16.81;77.25;101179.31;5004074;28;20399;-59
2023/06/08 03:46:46;;;;;;;2.60;1.50;;;;;;;16.75;77.06;101175.41;4989550;28;20041;-58
2023/06/08 03:49:12;;;;;;;3.30;1.63;;;;;;;16.63;77.90;101173.03;4986120;28;20049;-58
2023/06/08 03:51:39;;;;;;;4.05;1.60;;;;;;;16.77;78.13;101180.47;5009398;28;20026;-57
2023/06/08 03:54:05;;;;;;;5.60;1.42;;;;;;;16.96;77.14;101182.84;5006204;28;20049;-59
2023/06/08 03:56:30;;;;;;;5.65;1.45;;;;;;;16.94;76.78;101168.84;5005605;28;20018;-59
2023/06/08 03:58:57;;;;;;;4.65;2.08;;;;;;;16.98;77.19;101167.69;4995349;28;20033;-58
2023/06/08 04:01:23;;;;;;;2.33;1.67;;;;;;;16.98;77.14;101175.06;4999234;28;20041;-57
2023/06/08 04:03:51;;;;;;;5.07;1.73;;;;;;;16.95;76.74;101173.13;4994311;28;20041;-59
2023/06/08 04:06:18;;;;;;;5.05;1.95;;;;;;;16.86;77.60;101175.44;5006066;28;20444;-59
2023/06/08 04:08:44;;;;;;;4.32;1.88;;;;;;;16.84;77.97;101185.94;4986873;28;20021;-59
2023/06/08 04:11:11;;;;;;;5.10;2.30;;;;;;;16.82;77.54;101174.66;5022888;28;20250;-59
2023/06/08 04:13:40;;;;;;;4.13;1.80;;;;;;;16.93;77.73;101173.53;4998655;28;20076;-58
2023/06/08 04:16:09;;;;;;;5.90;2.83;;;;;;;16.85;77.46;101182.03;5004697;28;20037;-59
2023/06/08 04:18:39;;;;;;;4.53;2.20;;;;;;;16.85;77.61;101177.38;5000559;28;20031;-59
2023/06/08 04:21:07;;;;;;;2.60;1.65;;;;;;;16.86;77.66;101175.44;5016319;28;20519;-57
2023/06/08 04:23:34;;;;;;;4.68;2.65;;;;;;;17.03;77.27;101175.47;5021495;28;20022;-58
2023/06/08 04:26:02;;;;;;;2.90;1.52;;;;;;;17.08;76.98;101166.16;4990438;28;20637;-59
2023/06/08 04:28:28;;;;;;;3.53;1.75;;;;;;;16.93;77.17;101170.81;5009567;28;20022;-58
2023/06/08 04:30:53;;;;;;;3.83;2.42;;;;;;;16.90;77.71;101168.06;5007864;28;20038;-59
2023/06/08 04:33:20;;;;;;;5.05;1.45;;;;;;;16.96;77.50;101175.47;5009964;28;20030;-59
2023/06/08 04:35:46;;;;;;;3.35;2.08;;;;;;;17.00;76.90;101167.31;4993848;28;20489;-59
2023/06/08 04:38:14;;;;;;;3.58;2.10;;;;;;;17.01;76.77;101172.38;5027846;28;20029;-59
2023/06/08 04:41:11;;;;;;;5.07;2.05;;;;;;;17.06;76.70;101171.22;5007140;28;20044;-59
2023/06/08 04:43:37;;;;;;;3.50;1.60;;;;;;;16.89;76.82;101167.28;4947099;28;20753;-59
2023/06/08 04:46:07;;;;;;;8.52;2.05;;;;;;;16.80;77.52;101166.09;4927542;28;20035;-59
2023/06/08 04:48:35;;;;;;;3.67;1.60;;;;;;;16.93;77.05;101170.03;4952634;28;20090;-59
2023/06/08 04:51:03;;;;;;;3.22;1.92;;;;;;;16.83;77.74;101166.09;4945880;28;20301;-60
2023/06/08 04:53:33;;;;;;;3.10;1.80;;;;;;;16.94;78.05;101164.19;4912491;29;20537;-59
2023/06/08 04:56:01;;;;;;;4.57;1.52;;;;;;;16.93;78.37;101159.94;4926195;28;20051;-59
2023/06/08 04:58:28;;;;;;;6.40;1.98;;;;;;;17.06;77.85;101163.84;4952941;28;20039;-59
2023/06/08 05:00:56;;;;;;;2.03;1.38;;;;;;;17.04;78.19;101163.44;4948922;28;20070;-57
2023/06/08 05:03:22;;;;;;;4.70;1.92;;;;;;;17.03;78.16;101169.28;4933145;29;20038;-59
2023/06/08 05:05:48;;;;;;;3.33;2.03;;;;;;;17.02;78.13;101167.72;4950063;28;20050;-59
2023/06/08 05:08:14;;;;;;;2.58;1.58;;;;;;;17.14;77.77;101173.56;4936903;29;20054;-58
2023/06/08 05:10:39;;;;;;;3.40;1.77;;;;;;;17.19;77.38;101177.09;4949623;28;20027;-59
2023/06/08 05:13:05;;;;;;;3.58;1.67;;;;;;;17.17;77.08;101177.44;4942945;28;20035;-58
2023/06/08 05:15:31;;;;;;;6.38;1.90;;;;;;;17.26;77.62;101177.09;4943449;28;20118;-59
2023/06/08 05:17:57;;;;;;;4.05;2.35;;;;;;;17.32;77.54;101181.78;4946134;28;20036;-59
2023/06/08 05:20:24;;;;;;;5.72;1.95;;;;;;;17.49;76.96;101181.03;4969145;28;20149;-58
2023/06/08 05:23:01;;;;;;;4.32;2.20;;;;;;;17.51;76.36;101186.09;5005417;28;20042;-58
2023/06/08 05:25:26;;;;;;;5.05;2.25;;;;;;;17.39;76.45;101181.00;5008906;28;20029;-57
2023/06/08 05:27:52;;;;;;;6.30;2.28;;;;;;;17.25;76.44;101184.47;5007352;28;20038;-59
2023/06/08 05:30:18;;;;;;;2.90;1.77;;;;;;;17.40;76.66;101172.44;5019305;28;20034;-59
2023/06/08 05:32:44;;;;;;;2.38;1.83;;;;;;;17.43;76.58;101176.31;4993726;28;20034;-59
2023/06/08 05:35:09;;;;;;;4.07;2.47;;;;;;;17.55;76.53;101178.72;4989432;28;20038;-58
2023/06/08 05:37:39;;;;;;;3.00;1.73;;;;;;;17.60;76.44;101183.75;4995710;28;20034;-59
2023/06/08 05:40:05;;;;;;;4.63;1.67;;;;;;;17.71;75.77;101171.69;4999935;28;20025;-59
2023/06/08 05:42:31;;;;;;;4.85;1.80;;;;;;;17.76;75.52;101179.50;5012304;28;20057;-59
2023/06/08 05:44:57;;;;;;;4.82;2.60;;;;;;;17.69;76.15;101182.19;5003102;28;20412;-59
2023/06/08 05:47:42;;;;;;;4.40;2.13;;;;;;;17.85;74.94;101171.69;5005921;28;20077;-58
2023/06/08 05:50:08;;;;;;;2.72;1.73;;;;;;;17.84;75.07;101175.59;4966230;28;20181;-59
2023/06/08 05:52:33;;;;;;;3.30;1.88;;;;;;;17.95;74.33;101176.34;4968429;28;20054;-58
2023/06/08 05:55:00;;;;;;;5.38;2.28;;;;;;;17.81;74.78;101176.34;4970503;28;20039;-59
2023/06/08 05:57:26;;;;;;;5.63;2.05;;;;;;;17.89;74.52;101172.47;4968153;28;20074;-58
2023/06/08 05:59:52;;;;;;;3.90;1.92;;;;;;;17.83;74.68;101165.84;4970225;28;20038;-59
2023/06/08 06:02:17;;;;;;;2.92;1.63;;;;;;;17.95;75.00;101175.56;4980698;28;20153;-59
2023/06/08 06:04:43;;;;;;;6.32;2.03;;;;;;;18.21;74.99;101169.69;4970338;28;20117;-57
2023/06/08 06:07:09;;;;;;;2.88;1.50;;;;;;;18.49;73.68;101179.75;4966597;28;20575;-61
2023/06/08 06:09:35;;;;;;;4.13;2.42;;;;;;;18.78;72.41;101179.25;4978585;28;20046;-57
2023/06/08 06:12:02;;;;;;;3.45;1.95;;;;;;;19.04;71.12;101174.44;4959586;28;20038;-59
2023/06/08 06:14:35;;;;;;;4.85;1.73;;;;;;;19.34;69.77;101180.88;4972307;28;20043;-58
2023/06/08 06:17:00;;;;;;;3.33;1.65;;;;;;;19.71;68.60;101169.28;4978032;28;20042;-58
2023/06/08 06:19:26;;;;;;;2.83;1.48;;;;;;;19.93;67.55;101178.06;4967192;28;20042;-55
2023/06/08 06:21:51;;;;;;;2.80;1.77;;;;;;;20.10;67.77;101179.84;4952681;28;20046;-58
2023/06/08 06:24:17;;;;;;;5.95;2.70;;;;;;;20.37;66.73;101175.28;4969192;28;20508;-59
2023/06/08 06:26:42;;;;;;;4.28;1.85;;;;;;;20.49;64.88;101180.22;4980810;28;20041;-58
2023/06/08 06:29:08;;;;;;;4.13;1.63;;;;;;;20.60;64.01;101183.63;5010247;28;20040;-57
2023/06/08 06:31:33;;;;;;;5.30;1.90;;;;;;;20.76;63.86;101189.28;5027398;28;20099;-59
2023/06/08 06:33:59;;;;;;;5.28;1.95;;;;;;;20.88;63.50;101180.53;5011361;28;20038;-59
2023/06/08 06:36:26;;;;;;;3.20;1.85;;;;;;;20.96;63.92;101181.22;5008725;28;20038;-59
2023/06/08 06:38:52;;;;;;;4.65;2.42;;;;;;;21.07;62.93;101181.84;4999373;28;20057;-59
2023/06/08 06:41:17;;;;;;;2.72;1.30;;;;;;;21.27;63.02;101188.97;5025239;28;20439;-59
2023/06/08 06:43:43;;;;;;;4.90;2.22;;;;;;;21.21;62.28;101185.19;5008414;28;20034;-59
2023/06/08 06:46:12;;;;;;;3.00;1.35;;;;;;;21.29;62.36;101181.13;4998626;28;20124;-58
2023/06/08 06:48:37;;;;;;;3.40;1.92;;;;;;;21.41;63.13;101185.25;4995990;28;20070;-59
2023/06/08 06:51:04;;;;;;;3.38;1.63;;;;;;;21.57;62.99;101188.13;5009062;28;20524;-58
2023/06/08 06:53:30;;;;;;;3.70;1.98;;;;;;;21.73;61.94;101184.75;5007032;28;20119;-58
2023/06/08 06:55:55;;;;;;;5.15;1.98;;;;;;;21.86;60.46;101192.00;5013506;28;20489;-59
2023/06/08 06:58:22;;;;;;;3.75;2.13;;;;;;;21.88;60.97;101186.06;5007507;28;20487;-57
2023/06/08 07:00:49;;;;;;;3.78;1.80;;;;;;;21.99;60.81;101187.44;5056438;22;20099;-70
2023/06/08 07:03:16;;;;;;;3.33;1.58;;;;;;;21.99;59.61;101198.41;5044551;28;20029;-70
2023/06/08 07:05:41;;;;;;;4.30;1.73;;;;;;;21.80;59.54;101187.34;5043747;28;20037;-68
2023/06/08 07:08:07;;;;;;;2.15;1.45;;;;;;;21.89;60.53;101193.88;5048071;28;20082;-68
2023/06/08 07:10:32;;;;;;;4.07;2.08;;;;;;;21.90;61.18;101194.66;5040128;28;20029;-68
2023/06/08 07:12:59;;;;;;;4.40;2.10;;;;;;;22.12;60.62;101195.84;5047236;28;20033;-68
2023/06/08 07:15:25;;;;;;;3.83;2.05;;;;;;;22.25;59.29;101197.56;5044365;28;20601;-67
2023/06/08 07:18:11;;;;;;;4.72;1.70;;;;;;;22.32;59.09;101196.63;5033955;28;20516;-68
2023/06/08 07:20:36;;;;;;;3.42;1.65;;;;;;;22.05;59.41;101199.47;4958375;28;20053;-67
2023/06/08 07:23:05;;;;;;;3.83;1.92;;;;;;;22.26;60.56;101199.09;4956230;28;20047;-67
2023/06/08 07:25:32;;;;;;;2.42;1.38;;;;;;;22.41;60.14;101194.13;4968133;28;20138;-70
2023/06/08 07:28:00;;;;;;;4.03;1.60;;;;;;;22.59;59.15;101191.81;4973870;28;20046;-68
2023/06/08 07:30:26;;;;;;;3.63;1.73;;;;;;;22.96;57.71;101199.66;4973524;28;20031;-67
2023/06/08 07:32:52;;;;;;;1.90;1.30;;;;;;;22.98;58.08;101196.47;4952789;28;20642;-68
2023/06/08 07:35:17;;;;;;;4.72;1.52;;;;;;;23.20;58.09;101198.34;4968211;28;20034;-68
2023/06/08 07:37:42;;;;;;;3.90;1.77;;;;;;;23.43;57.32;101200.19;4952145;28;20122;-68
2023/06/08 07:40:08;;;;;;;4.90;1.80;;;;;;;23.52;55.60;101205.09;4968990;28;20113;-68
2023/06/08 07:42:34;;;;;;;2.75;1.67;;;;;;;23.54;57.03;101202.72;4965487;28;20035;-68
2023/06/08 07:45:00;;;;;;;3.42;1.98;;;;;;;23.66;56.11;101199.25;4960033;28;20059;-67
2023/06/08 07:47:25;;;;;;;4.65;2.17;;;;;;;23.77;56.73;101208.03;4966939;28;20074;-68
2023/06/08 07:49:51;;;;;;;2.55;1.70;;;;;;;24.01;56.73;101209.34;4958998;28;20043;-68
2023/06/08 07:52:16;;;;;;;4.97;1.95;;;;;;;24.09;55.08;101206.03;4973692;28;20059;-68
2023/06/08 07:54:42;;;;;;;4.53;1.50;;;;;;;24.24;54.30;101211.91;4964994;28;20489;-67
2023/06/08 07:57:07;;;;;;;2.53;1.55;;;;;;;24.31;54.48;101200.72;4988519;28;20049;-69
2023/06/08 07:59:33;;;;;;;3.85;1.85;;;;;;;24.17;54.03;101199.13;5047252;28;20048;-68
2023/06/08 08:02:01;;;;;;;2.70;1.90;;;;;;;24.31;55.20;101197.97;5037292;28;20056;-67
2023/06/08 08:04:27;;;;;;;3.20;1.85;;;;;;;24.71;54.48;101192.91;5048193;28;20041;-68
2023/06/08 08:06:52;;;;;;;4.13;1.65;;;;;;;24.77;53.96;101188.41;5048006;28;20029;-68
2023/06/08 08:09:17;;;;;;;4.13;1.60;;;;;;;24.67;53.53;101190.25;5034866;28;20033;-68
2023/06/08 08:11:43;;;;;;;2.25;1.63;;;;;;;24.76;54.23;101192.38;5039274;28;20041;-67
2023/06/08 08:14:10;;;;;;;6.13;1.80;;;;;;;24.88;53.30;101186.13;5039927;28;20025;-68
2023/06/08 08:16:37;;;;;;;4.50;1.50;;;;;;;24.97;52.95;101189.75;5029169;28;20096;-68
2023/06/08 08:19:02;;;;;;;3.35;1.67;;;;;;;25.14;53.19;101184.16;5040308;28;20489;-68
2023/06/08 08:21:28;;;;;;;2.70;1.63;;;;;;;25.41;52.51;101192.78;5038621;28;20029;-67
2023/06/08 08:23:53;;;;;;;2.90;1.92;;;;;;;25.34;52.37;101190.97;5043787;28;20039;-67
2023/06/08 08:26:19;;;;;;;3.72;2.00;;;;;;;25.62;51.81;101187.34;5040183;28;20060;-67
2023/06/08 08:28:46;;;;;;;2.58;1.67;;;;;;;25.47;51.39;101180.75;5038082;28;20167;-67
2023/06/08 08:31:11;;;;;;;3.33;1.70;;;;;;;25.65;51.68;101182.91;5042755;28;20100;-67
2023/06/08 08:33:37;;;;;;;3.72;1.50;;;;;;;25.59;51.64;101185.44;5038177;28;20423;-68
2023/06/08 08:36:04;;;;;;;3.25;1.52;;;;;;;25.74;51.16;101186.53;5045489;28;20037;-67
2023/06/08 08:38:30;;;;;;;5.10;1.52;;;;;;;25.71;51.14;101184.66;5047359;28;20091;-68
2023/06/08 08:41:06;;;;;;;4.82;2.03;;;;;;;25.79;50.88;101188.72;5048713;28;20033;-68
2023/06/08 08:43:44;;;;;;;3.83;2.15;;;;;;;25.79;49.96;101182.44;5048166;28;20037;-68
2023/06/08 08:46:11;;;;;;;2.10;1.55;;;;;;;25.92;51.90;101185.91;5043271;28;20044;-67
2023/06/08 08:48:42;;;;;;;5.10;1.75;;;;;;;26.15;51.54;101187.53;5048922;28;20032;-67
2023/06/08 08:51:13;;;;;;;2.15;1.48;;;;;;;26.38;50.09;101187.88;5047766;28;20045;-69
2023/06/08 08:53:40;;;;;;;3.87;1.70;;;;;;;26.41;49.70;101183.44;5038122;28;20037;-67
2023/06/08 08:56:06;;;;;;;2.75;1.40;;;;;;;26.46;49.65;101180.84;5047296;28;21117;-67
2023/06/08 08:58:34;;;;;;;4.65;1.70;;;;;;;26.45;49.41;101184.06;5038847;28;20029;-68
2023/06/08 09:01:03;;;;;;;3.42;1.08;;;;;;;26.56;49.73;101182.44;5041318;28;20041;-67
2023/06/08 09:03:28;;;;;;;3.40;1.63;;;;;;;27.00;50.26;101174.13;5048775;28;20025;-68
2023/06/08 09:05:54;;;;;;;2.45;1.67;;;;;;;27.22;49.51;101166.50;5039014;28;20037;-67
2023/06/08 09:08:22;;;;;;;4.70;1.88;;;;;;;27.33;48.80;101178.72;5049150;28;20029;-67
2023/06/08 09:11:04;;;;;;;2.13;1.52;;;;;;;27.41;48.43;101173.69;5049853;28;20040;-67
2023/06/08 09:13:31;;;;;;;2.67;1.33;;;;;;;27.44;47.90;101175.53;5052133;28;20481;-67
2023/06/08 09:16:07;;;;;;;2.30;1.60;;;;;;;27.59;47.64;101171.72;5040810;28;20033;-67
2023/06/08 09:18:33;;;;;;;2.28;1.42;;;;;;;27.79;47.41;101176.81;5047387;28;20401;-68
2023/06/08 09:21:17;;;;;;;5.80;1.88;;;;;;;27.62;46.91;101181.09;5052680;28;20031;-67
2023/06/08 09:23:43;;;;;;;4.30;1.45;;;;;;;27.71;46.90;101183.88;5052381;28;20036;-67
2023/06/08 09:26:08;;;;;;;3.50;1.63;;;;;;;27.95;47.34;101179.31;5049852;28;20102;-68
2023/06/08 09:28:35;;;;;;;2.80;1.40;;;;;;;27.84;47.03;101173.44;5050804;28;20512;-68
2023/06/08 09:31:08;;;;;;;4.68;1.48;;;;;;;27.82;47.17;101170.34;5051038;28;20024;-68
2023/06/08 09:33:34;;;;;;;2.03;1.10;;;;;;;28.23;46.81;101174.53;5047496;28;20389;-68
2023/06/08 09:35:59;;;;;;;2.55;1.38;;;;;;;28.62;46.76;101172.78;5050654;28;20037;-67
2023/06/08 09:38:26;;;;;;;2.28;1.38;;;;;;;28.77;46.21;101173.66;5047518;28;20061;-67
2023/06/08 09:41:15;;;;;;;3.83;1.17;;;;;;;28.95;45.61;101176.41;5051947;28;20436;-67
2023/06/08 09:43:43;;;;;;;4.10;1.80;;;;;;;28.55;44.99;101173.13;5050606;28;20412;-68
2023/06/08 09:46:13;;;;;;;2.53;1.48;;;;;;;28.79;46.36;101171.19;5045040;28;20413;-68
2023/06/08 09:48:52;;;;;;;1.77;1.33;;;;;;;28.97;45.44;101171.91;5048541;28;20040;-67
2023/06/08 09:51:18;;;;;;;1.70;1.30;;;;;;;29.12;44.03;101164.44;5045065;28;20033;-67
2023/06/08 09:53:45;;;;;;;2.67;1.75;;;;;;;29.36;44.60;101167.28;5047453;28;20028;-67
2023/06/08 09:56:11;;;;;;;2.47;1.58;;;;;;;29.56;44.54;101167.47;5044506;28;20173;-67
2023/06/08 09:58:39;;;;;;;2.80;1.30;;;;;;;29.47;43.38;101161.97;5038908;28;20033;-66
2023/06/08 10:01:10;;;;;;;1.73;1.23;;;;;;;29.71;44.03;101162.78;5037078;28;20029;-66
2023/06/08 10:03:47;;;;;;;2.20;1.38;;;;;;;29.93;43.87;101165.22;5046913;28;20044;-64
2023/06/08 10:06:15;;;;;;;3.70;1.38;;;;;;;30.10;43.26;101155.19;5043889;28;20473;-66
2023/06/08 10:08:45;;;;;;;4.20;1.23;;;;;;;30.07;42.93;101162.47;5043757;28;20037;-67
2023/06/08 10:11:13;;;;;;;;;;;;;;;30.20;42.69;101159.41;5037760;28;20495;-67
2023/06/08 10:13:39;;;;;;;2.13;1.30;;;;;;;30.37;42.38;101156.97;5040414;28;19952;-66
2023/06/08 10:16:06;;;;;;;3.03;1.10;;;;;;;30.47;42.77;101153.59;5042223;28;20091;-65
2023/06/08 10:18:32;;;;;;;1.38;1.05;;;;;;;30.62;42.09;101162.72;5039606;28;20056;-66
2023/06/08 10:21:00;;;;;;;1.23;1.00;;;;;;;30.70;42.12;101149.19;5046406;28;20126;-67
2023/06/08 10:23:26;;;;;;;2.30;1.40;;;;;;;30.70;41.65;101151.97;5035369;28;20568;-66
2023/06/08 10:25:53;;;;;;;2.72;1.10;;;;;;;30.98;41.91;101147.63;5050904;28;20386;-66
2023/06/08 10:28:20;;;;;;;1.35;1.08;;;;;;;31.01;41.84;101144.63;5035343;28;20558;-66
2023/06/08 10:30:46;;;;;;;2.08;1.20;;;;;;;30.97;41.26;101144.06;5032719;28;20017;-67
2023/06/08 10:33:12;;;;;;;3.20;1.67;;;;;;;30.86;42.04;101143.13;5033103;28;20440;-67
2023/06/08 10:35:42;;;;;;;2.90;1.30;;;;;;;31.22;41.90;101141.91;5048034;28;20127;-66
2023/06/08 10:38:15;;;;;;;3.60;1.40;;;;;;;31.43;41.42;101143.47;5036808;28;20126;-66
2023/06/08 10:40:45;;;;;;;2.28;1.25;;;;;;;31.32;41.03;101134.97;5048107;28;20033;-66
2023/06/08 10:43:12;;;;;;;1.80;1.23;;;;;;;31.38;40.05;101128.22;5035798;28;20033;-66
2023/06/08 10:45:40;;;;;;;2.72;1.35;;;;;;;31.32;39.92;101129.38;5039920;28;20647;-65
2023/06/08 10:48:13;;;;;;;1.50;0.98;;;;;;;31.66;40.71;101126.56;5040834;28;20045;-68
2023/06/08 10:51:01;;;;;;;2.25;1.30;;;;;;;31.62;40.05;101131.56;5045279;28;20033;-66
2023/06/08 10:53:56;;;;;;;2.20;1.30;;;;;;;31.10;40.06;101130.63;4987465;28;20073;-65
2023/06/08 10:56:26;;;;;;;1.55;1.10;;;;;;;31.33;40.46;101119.75;4974842;28;20042;-65
2023/06/08 10:58:52;;;;;;;1.10;0.80;;;;;;;31.53;39.84;101123.38;5003356;28;20062;-67
2023/06/08 11:01:22;;;;;;;4.00;1.30;;;;;;;31.48;39.87;101110.13;4980406;28;20137;-67
2023/06/08 11:03:48;;;;;;;2.40;1.10;;;;;;;31.73;39.55;101114.97;4982669;28;20054;-69
2023/06/08 11:06:14;;;;;;;2.13;1.23;;;;;;;31.68;38.53;101117.69;5005861;28;20046;-68
2023/06/08 11:08:40;;;;;;;1.58;1.13;;;;;;;31.83;38.53;101119.16;5002129;28;20446;-68
2023/06/08 11:11:05;;;;;;;1.20;1.10;;;;;;;32.19;39.02;101114.22;4994349;28;20053;-69
2023/06/08 11:13:31;;;;;;;2.40;0.98;;;;;;;32.28;38.22;101114.81;5004900;28;20022;-68
2023/06/08 11:15:57;;;;;;;1.88;1.40;;;;;;;32.29;37.60;101110.75;4973417;28;20030;-67
2023/06/08 11:18:29;;;;;;;2.78;1.20;;;;;;;32.71;38.08;101104.53;4977147;28;20049;-69
2023/06/08 11:20:58;;;;;;;4.80;1.00;;;;;;;32.91;38.29;101101.59;5000920;28;20026;-68
2023/06/08 11:23:24;;;;;;;3.00;1.45;;;;;;;32.94;37.80;101099.84;4997754;28;20490;-69
2023/06/08 11:25:50;;;;;;;1.90;0.75;;;;;;;33.27;36.51;101103.63;4998303;28;20108;-67
2023/06/08 11:28:16;;;;;;;2.38;1.25;;;;;;;33.16;37.20;101097.22;4972112;28;20022;-68
2023/06/08 11:30:41;;;;;;;1.20;1.00;;;;;;;33.25;37.67;101100.56;5020152;28;20045;-66
2023/06/08 11:33:08;;;;;;;1.88;1.10;;;;;;;33.27;36.50;101103.63;5035146;28;20040;-67